sensor_id;sensor_type;location;lat;lon;timestamp;P1;durP1;ratioP1;P2;durP2;ratioP2
11473;SDS011;5793;52.238;13.438;2022-11-21T00:01:12;19.90;;;13.87;;
11473;SDS011;5793;52.238;13.438;2022-11-21T00:03:42;18.47;;;12.00;;
11473;SDS011;5793;52.238;13.438;2022-11-21T00:06:10;21.77;;;13.53;;
11473;SDS011;5793;52.238;13.438;2022-11-21T00:08:38;27.13;;;14.90;;
11473;SDS011;5793;52.238;13.438;2022-11-21T00:11:05;20.37;;;13.10;;
11473;SDS011;5793;52.238;13.438;2022-11-21T00:13:34;23.17;;;14.20;;
11473;SDS011;5793;52.238;13.438;2022-11-21T00:16:02;21.07;;;13.80;;
11473;SDS011;5793;52.238;13.438;2022-11-21T00:18:31;19.53;;;12.60;;
11473;SDS011;5793;52.238;13.438;2022-11-21T00:21:02;23.07;;;14.47;;
11473;SDS011;5793;52.238;13.438;2022-11-21T00:23:30;20.37;;;14.00;;
11473;SDS011;5793;52.238;13.438;2022-11-21T00:25:58;20.87;;;13.53;;
11473;SDS011;5793;52.238;13.438;2022-11-21T00:28:30;23.27;;;14.57;;
11473;SDS011;5793;52.238;13.438;2022-11-21T00:30:59;20.40;;;14.03;;
11473;SDS011;5793;52.238;13.438;2022-11-21T00:33:27;21.43;;;13.77;;
11473;SDS011;5793;52.238;13.438;2022-11-21T00:35:55;22.17;;;14.10;;
11473;SDS011;5793;52.238;13.438;2022-11-21T00:38:23;20.43;;;13.50;;
11473;SDS011;5793;52.238;13.438;2022-11-21T00:40:51;22.70;;;14.67;;
11473;SDS011;5793;52.238;13.438;2022-11-21T00:43:18;21.53;;;14.63;;
11473;SDS011;5793;52.238;13.438;2022-11-21T00:45:46;23.87;;;15.40;;
11473;SDS011;5793;52.238;13.438;2022-11-21T00:48:15;27.43;;;15.50;;
11473;SDS011;5793;52.238;13.438;2022-11-21T00:50:43;29.40;;;16.47;;
11473;SDS011;5793;52.238;13.438;2022-11-21T00:53:13;25.13;;;15.40;;
11473;SDS011;5793;52.238;13.438;2022-11-21T00:55:41;27.50;;;15.10;;
11473;SDS011;5793;52.238;13.438;2022-11-21T00:58:09;27.80;;;16.80;;
11473;SDS011;5793;52.238;13.438;2022-11-21T01:25:15;26.53;;;15.90;;
11473;SDS011;5793;52.238;13.438;2022-11-21T01:27:43;25.20;;;15.83;;
11473;SDS011;5793;52.238;13.438;2022-11-21T01:30:11;28.13;;;17.10;;
11473;SDS011;5793;52.238;13.438;2022-11-21T01:32:40;26.50;;;16.10;;
11473;SDS011;5793;52.238;13.438;2022-11-21T01:35:08;26.10;;;16.30;;
11473;SDS011;5793;52.238;13.438;2022-11-21T01:37:36;25.23;;;15.37;;
11473;SDS011;5793;52.238;13.438;2022-11-21T01:40:05;27.30;;;15.93;;
11473;SDS011;5793;52.238;13.438;2022-11-21T01:42:42;27.23;;;15.87;;
11473;SDS011;5793;52.238;13.438;2022-11-21T01:48:19;24.37;;;15.27;;
11473;SDS011;5793;52.238;13.438;2022-11-21T01:50:51;24.33;;;14.40;;
11473;SDS011;5793;52.238;13.438;2022-11-21T01:53:20;25.00;;;14.93;;
11473;SDS011;5793;52.238;13.438;2022-11-21T01:55:49;22.13;;;14.87;;
11473;SDS011;5793;52.238;13.438;2022-11-21T01:58:17;25.47;;;15.10;;
11473;SDS011;5793;52.238;13.438;2022-11-21T02:00:46;26.73;;;16.03;;
11473;SDS011;5793;52.238;13.438;2022-11-21T02:03:15;26.20;;;15.70;;
11473;SDS011;5793;52.238;13.438;2022-11-21T02:05:46;26.80;;;16.40;;
11473;SDS011;5793;52.238;13.438;2022-11-21T02:08:16;27.17;;;15.63;;
11473;SDS011;5793;52.238;13.438;2022-11-21T02:10:46;23.37;;;14.83;;
11473;SDS011;5793;52.238;13.438;2022-11-21T02:13:20;24.67;;;15.80;;
11473;SDS011;5793;52.238;13.438;2022-11-21T02:15:48;25.63;;;16.10;;
11473;SDS011;5793;52.238;13.438;2022-11-21T02:18:16;23.17;;;15.30;;
11473;SDS011;5793;52.238;13.438;2022-11-21T02:20:45;25.97;;;16.37;;
11473;SDS011;5793;52.238;13.438;2022-11-21T02:23:20;24.50;;;14.93;;
11473;SDS011;5793;52.238;13.438;2022-11-21T02:25:56;27.27;;;16.63;;
11473;SDS011;5793;52.238;13.438;2022-11-21T02:28:24;25.20;;;14.57;;
11473;SDS011;5793;52.238;13.438;2022-11-21T02:30:52;24.30;;;14.80;;
11473;SDS011;5793;52.238;13.438;2022-11-21T02:33:20;24.37;;;14.47;;
11473;SDS011;5793;52.238;13.438;2022-11-21T02:35:54;25.43;;;15.87;;
11473;SDS011;5793;52.238;13.438;2022-11-21T02:38:24;24.53;;;15.27;;
11473;SDS011;5793;52.238;13.438;2022-11-21T02:40:58;22.87;;;14.53;;
11473;SDS011;5793;52.238;13.438;2022-11-21T02:43:37;20.47;;;13.47;;
11473;SDS011;5793;52.238;13.438;2022-11-21T02:46:08;25.37;;;15.77;;
11473;SDS011;5793;52.238;13.438;2022-11-21T02:48:36;27.60;;;15.57;;
11473;SDS011;5793;52.238;13.438;2022-11-21T02:51:05;25.93;;;15.47;;
11473;SDS011;5793;52.238;13.438;2022-11-21T02:53:32;23.53;;;15.60;;
11473;SDS011;5793;52.238;13.438;2022-11-21T02:56:02;28.30;;;16.53;;
11473;SDS011;5793;52.238;13.438;2022-11-21T02:58:30;24.47;;;15.27;;
11473;SDS011;5793;52.238;13.438;2022-11-21T03:00:57;24.87;;;15.70;;
11473;SDS011;5793;52.238;13.438;2022-11-21T03:03:25;24.33;;;14.70;;
11473;SDS011;5793;52.238;13.438;2022-11-21T03:05:53;23.27;;;15.37;;
11473;SDS011;5793;52.238;13.438;2022-11-21T03:08:22;24.47;;;15.47;;
11473;SDS011;5793;52.238;13.438;2022-11-21T03:10:49;27.53;;;16.37;;
11473;SDS011;5793;52.238;13.438;2022-11-21T03:13:18;25.60;;;15.40;;
11473;SDS011;5793;52.238;13.438;2022-11-21T03:15:46;26.63;;;15.73;;
11473;SDS011;5793;52.238;13.438;2022-11-21T03:18:14;24.47;;;15.20;;
11473;SDS011;5793;52.238;13.438;2022-11-21T03:20:41;24.47;;;14.80;;
11473;SDS011;5793;52.238;13.438;2022-11-21T03:23:09;24.93;;;15.47;;
11473;SDS011;5793;52.238;13.438;2022-11-21T03:25:37;23.97;;;14.93;;
11473;SDS011;5793;52.238;13.438;2022-11-21T03:28:05;24.90;;;15.17;;
11473;SDS011;5793;52.238;13.438;2022-11-21T03:30:34;23.33;;;14.77;;
11473;SDS011;5793;52.238;13.438;2022-11-21T03:33:01;22.10;;;14.33;;
11473;SDS011;5793;52.238;13.438;2022-11-21T03:35:29;21.00;;;13.77;;
11473;SDS011;5793;52.238;13.438;2022-11-21T03:37:57;22.70;;;14.90;;
11473;SDS011;5793;52.238;13.438;2022-11-21T03:40:24;24.50;;;15.47;;
11473;SDS011;5793;52.238;13.438;2022-11-21T03:42:52;23.80;;;14.13;;
11473;SDS011;5793;52.238;13.438;2022-11-21T03:45:20;26.57;;;15.80;;
11473;SDS011;5793;52.238;13.438;2022-11-21T03:47:49;23.53;;;15.13;;
11473;SDS011;5793;52.238;13.438;2022-11-21T03:50:17;24.67;;;14.87;;
11473;SDS011;5793;52.238;13.438;2022-11-21T03:52:46;24.37;;;15.63;;
11473;SDS011;5793;52.238;13.438;2022-11-21T03:55:13;24.53;;;14.77;;
11473;SDS011;5793;52.238;13.438;2022-11-21T03:57:41;24.77;;;15.17;;
11473;SDS011;5793;52.238;13.438;2022-11-21T04:00:09;24.70;;;15.70;;
11473;SDS011;5793;52.238;13.438;2022-11-21T04:02:38;29.33;;;16.17;;
11473;SDS011;5793;52.238;13.438;2022-11-21T04:05:07;24.17;;;14.67;;
11473;SDS011;5793;52.238;13.438;2022-11-21T04:07:35;26.90;;;15.70;;
11473;SDS011;5793;52.238;13.438;2022-11-21T04:10:03;22.97;;;14.57;;
11473;SDS011;5793;52.238;13.438;2022-11-21T04:12:31;24.23;;;14.67;;
11473;SDS011;5793;52.238;13.438;2022-11-21T04:14:59;25.87;;;15.63;;
11473;SDS011;5793;52.238;13.438;2022-11-21T04:17:27;26.23;;;15.00;;
11473;SDS011;5793;52.238;13.438;2022-11-21T04:19:57;27.47;;;16.60;;
11473;SDS011;5793;52.238;13.438;2022-11-21T04:22:26;28.77;;;20.25;;
11473;SDS011;5793;52.238;13.438;2022-11-21T04:24:53;27.07;;;17.63;;
11473;SDS011;5793;52.238;13.438;2022-11-21T04:27:21;24.13;;;15.33;;
11473;SDS011;5793;52.238;13.438;2022-11-21T04:29:49;27.00;;;16.23;;
11473;SDS011;5793;52.238;13.438;2022-11-21T04:32:16;25.00;;;15.87;;
11473;SDS011;5793;52.238;13.438;2022-11-21T04:34:44;24.83;;;15.90;;
11473;SDS011;5793;52.238;13.438;2022-11-21T04:37:12;23.83;;;15.27;;
11473;SDS011;5793;52.238;13.438;2022-11-21T04:39:41;27.07;;;15.67;;
11473;SDS011;5793;52.238;13.438;2022-11-21T04:42:09;25.80;;;15.63;;
11473;SDS011;5793;52.238;13.438;2022-11-21T04:44:36;25.60;;;16.70;;
11473;SDS011;5793;52.238;13.438;2022-11-21T04:47:04;23.90;;;15.37;;
11473;SDS011;5793;52.238;13.438;2022-11-21T04:49:32;24.73;;;15.60;;
11473;SDS011;5793;52.238;13.438;2022-11-21T04:51:59;26.57;;;15.43;;
11473;SDS011;5793;52.238;13.438;2022-11-21T04:54:27;23.87;;;14.83;;
11473;SDS011;5793;52.238;13.438;2022-11-21T04:56:57;28.77;;;16.60;;
11473;SDS011;5793;52.238;13.438;2022-11-21T04:59:24;27.73;;;16.30;;
11473;SDS011;5793;52.238;13.438;2022-11-21T05:01:52;26.40;;;15.80;;
11473;SDS011;5793;52.238;13.438;2022-11-21T05:04:20;25.83;;;16.60;;
11473;SDS011;5793;52.238;13.438;2022-11-21T05:06:48;26.97;;;16.70;;
11473;SDS011;5793;52.238;13.438;2022-11-21T05:09:15;25.17;;;16.37;;
11473;SDS011;5793;52.238;13.438;2022-11-21T05:11:43;25.17;;;15.33;;
11473;SDS011;5793;52.238;13.438;2022-11-21T05:14:30;28.52;;;20.42;;
11473;SDS011;5793;52.238;13.438;2022-11-21T05:16:58;26.80;;;17.30;;
11473;SDS011;5793;52.238;13.438;2022-11-21T05:19:25;26.97;;;16.23;;
11473;SDS011;5793;52.238;13.438;2022-11-21T05:21:53;27.07;;;16.53;;
11473;SDS011;5793;52.238;13.438;2022-11-21T05:24:21;28.67;;;17.43;;
11473;SDS011;5793;52.238;13.438;2022-11-21T05:26:49;24.23;;;16.37;;
11473;SDS011;5793;52.238;13.438;2022-11-21T05:29:17;24.23;;;16.07;;
11473;SDS011;5793;52.238;13.438;2022-11-21T05:31:53;26.17;;;17.07;;
11473;SDS011;5793;52.238;13.438;2022-11-21T05:34:20;26.97;;;17.53;;
11473;SDS011;5793;52.238;13.438;2022-11-21T05:36:51;27.33;;;17.13;;
11473;SDS011;5793;52.238;13.438;2022-11-21T05:39:22;26.60;;;16.13;;
11473;SDS011;5793;52.238;13.438;2022-11-21T05:41:50;28.03;;;16.53;;
11473;SDS011;5793;52.238;13.438;2022-11-21T05:44:23;26.70;;;17.40;;
11473;SDS011;5793;52.238;13.438;2022-11-21T05:46:50;24.20;;;15.87;;
11473;SDS011;5793;52.238;13.438;2022-11-21T05:49:19;30.63;;;17.47;;
11473;SDS011;5793;52.238;13.438;2022-11-21T05:51:47;29.40;;;18.93;;
11473;SDS011;5793;52.238;13.438;2022-11-21T05:54:15;28.70;;;17.87;;
11473;SDS011;5793;52.238;13.438;2022-11-21T05:56:43;29.53;;;17.83;;
11473;SDS011;5793;52.238;13.438;2022-11-21T05:59:11;32.17;;;17.37;;
11473;SDS011;5793;52.238;13.438;2022-11-21T06:01:38;29.37;;;16.77;;
11473;SDS011;5793;52.238;13.438;2022-11-21T06:04:25;29.87;;;17.77;;
11473;SDS011;5793;52.238;13.438;2022-11-21T06:06:53;27.83;;;17.30;;
11473;SDS011;5793;52.238;13.438;2022-11-21T06:09:21;29.07;;;17.77;;
11473;SDS011;5793;52.238;13.438;2022-11-21T06:11:48;28.90;;;17.07;;
11473;SDS011;5793;52.238;13.438;2022-11-21T06:14:16;28.00;;;17.63;;
11473;SDS011;5793;52.238;13.438;2022-11-21T06:16:44;27.23;;;17.27;;
11473;SDS011;5793;52.238;13.438;2022-11-21T06:19:12;29.43;;;17.53;;
11473;SDS011;5793;52.238;13.438;2022-11-21T06:21:41;30.63;;;17.43;;
11473;SDS011;5793;52.238;13.438;2022-11-21T06:24:08;34.83;;;20.27;;
11473;SDS011;5793;52.238;13.438;2022-11-21T06:26:37;30.87;;;18.50;;
11473;SDS011;5793;52.238;13.438;2022-11-21T06:29:05;29.83;;;18.03;;
11473;SDS011;5793;52.238;13.438;2022-11-21T06:31:32;30.47;;;18.43;;
11473;SDS011;5793;52.238;13.438;2022-11-21T06:34:00;28.33;;;17.50;;
11473;SDS011;5793;52.238;13.438;2022-11-21T06:36:28;30.97;;;18.33;;
11473;SDS011;5793;52.238;13.438;2022-11-21T06:38:57;29.43;;;18.53;;
11473;SDS011;5793;52.238;13.438;2022-11-21T06:41:25;27.80;;;16.87;;
11473;SDS011;5793;52.238;13.438;2022-11-21T06:43:57;26.93;;;16.73;;
11473;SDS011;5793;52.238;13.438;2022-11-21T06:46:25;28.80;;;17.33;;
11473;SDS011;5793;52.238;13.438;2022-11-21T06:48:53;30.63;;;18.40;;
11473;SDS011;5793;52.238;13.438;2022-11-21T06:51:21;31.23;;;17.97;;
11473;SDS011;5793;52.238;13.438;2022-11-21T06:53:51;28.80;;;18.70;;
11473;SDS011;5793;52.238;13.438;2022-11-21T06:56:23;27.03;;;17.57;;
11473;SDS011;5793;52.238;13.438;2022-11-21T06:58:51;30.70;;;17.80;;
11473;SDS011;5793;52.238;13.438;2022-11-21T07:01:19;32.53;;;18.60;;
11473;SDS011;5793;52.238;13.438;2022-11-21T07:03:46;31.17;;;17.87;;
11473;SDS011;5793;52.238;13.438;2022-11-21T07:06:14;30.63;;;18.47;;
11473;SDS011;5793;52.238;13.438;2022-11-21T07:08:42;28.13;;;17.47;;
11473;SDS011;5793;52.238;13.438;2022-11-21T07:11:10;31.10;;;18.57;;
11473;SDS011;5793;52.238;13.438;2022-11-21T07:13:56;34.33;;;19.13;;
11473;SDS011;5793;52.238;13.438;2022-11-21T07:16:24;32.23;;;19.03;;
11473;SDS011;5793;52.238;13.438;2022-11-21T07:18:55;30.13;;;18.70;;
11473;SDS011;5793;52.238;13.438;2022-11-21T07:21:23;30.47;;;18.17;;
11473;SDS011;5793;52.238;13.438;2022-11-21T07:23:51;33.27;;;19.17;;
11473;SDS011;5793;52.238;13.438;2022-11-21T07:26:18;31.40;;;18.37;;
11473;SDS011;5793;52.238;13.438;2022-11-21T07:28:46;31.10;;;18.60;;
11473;SDS011;5793;52.238;13.438;2022-11-21T07:31:15;31.03;;;18.50;;
11473;SDS011;5793;52.238;13.438;2022-11-21T07:33:43;31.70;;;17.67;;
11473;SDS011;5793;52.238;13.438;2022-11-21T07:36:12;27.43;;;17.77;;
11473;SDS011;5793;52.238;13.438;2022-11-21T07:38:40;30.30;;;18.53;;
11473;SDS011;5793;52.238;13.438;2022-11-21T07:41:07;28.20;;;17.87;;
11473;SDS011;5793;52.238;13.438;2022-11-21T07:43:35;28.13;;;17.80;;
11473;SDS011;5793;52.238;13.438;2022-11-21T07:46:03;26.87;;;17.10;;
11473;SDS011;5793;52.238;13.438;2022-11-21T07:48:32;31.67;;;17.83;;
11473;SDS011;5793;52.238;13.438;2022-11-21T07:51:01;29.93;;;18.37;;
11473;SDS011;5793;52.238;13.438;2022-11-21T07:53:30;29.67;;;16.83;;
11473;SDS011;5793;52.238;13.438;2022-11-21T07:55:58;28.40;;;18.70;;
11473;SDS011;5793;52.238;13.438;2022-11-21T07:58:26;28.13;;;17.60;;
11473;SDS011;5793;52.238;13.438;2022-11-21T08:00:54;29.13;;;18.50;;
11473;SDS011;5793;52.238;13.438;2022-11-21T08:03:22;27.43;;;17.97;;
11473;SDS011;5793;52.238;13.438;2022-11-21T08:05:51;28.30;;;18.70;;
11473;SDS011;5793;52.238;13.438;2022-11-21T08:08:19;29.20;;;18.27;;
11473;SDS011;5793;52.238;13.438;2022-11-21T08:10:47;26.53;;;17.83;;
11473;SDS011;5793;52.238;13.438;2022-11-21T08:13:16;28.60;;;18.37;;
11473;SDS011;5793;52.238;13.438;2022-11-21T08:15:44;30.27;;;20.97;;
11473;SDS011;5793;52.238;13.438;2022-11-21T08:18:12;31.03;;;19.30;;
11473;SDS011;5793;52.238;13.438;2022-11-21T08:20:42;28.23;;;19.77;;
11473;SDS011;5793;52.238;13.438;2022-11-21T08:23:11;26.03;;;17.30;;
11473;SDS011;5793;52.238;13.438;2022-11-21T08:25:39;30.03;;;18.30;;
11473;SDS011;5793;52.238;13.438;2022-11-21T08:28:08;26.47;;;18.03;;
11473;SDS011;5793;52.238;13.438;2022-11-21T08:30:37;30.13;;;18.40;;
11473;SDS011;5793;52.238;13.438;2022-11-21T08:33:06;28.60;;;18.00;;
11473;SDS011;5793;52.238;13.438;2022-11-21T08:35:34;28.30;;;17.57;;
11473;SDS011;5793;52.238;13.438;2022-11-21T08:38:03;26.77;;;16.67;;
11473;SDS011;5793;52.238;13.438;2022-11-21T08:40:32;30.13;;;18.23;;
11473;SDS011;5793;52.238;13.438;2022-11-21T08:43:01;30.13;;;19.70;;
11473;SDS011;5793;52.238;13.438;2022-11-21T08:45:30;28.57;;;18.07;;
11473;SDS011;5793;52.238;13.438;2022-11-21T08:47:59;27.23;;;17.73;;
11473;SDS011;5793;52.238;13.438;2022-11-21T08:50:27;30.83;;;18.50;;
11473;SDS011;5793;52.238;13.438;2022-11-21T08:52:57;31.00;;;18.10;;
11473;SDS011;5793;52.238;13.438;2022-11-21T08:55:26;28.03;;;18.40;;
11473;SDS011;5793;52.238;13.438;2022-11-21T08:57:55;28.10;;;17.87;;
11473;SDS011;5793;52.238;13.438;2022-11-21T09:00:23;27.23;;;17.50;;
11473;SDS011;5793;52.238;13.438;2022-11-21T09:02:51;29.60;;;19.07;;
11473;SDS011;5793;52.238;13.438;2022-11-21T09:05:19;29.33;;;18.30;;
11473;SDS011;5793;52.238;13.438;2022-11-21T09:07:47;28.20;;;17.90;;
11473;SDS011;5793;52.238;13.438;2022-11-21T09:10:15;28.30;;;18.53;;
11473;SDS011;5793;52.238;13.438;2022-11-21T09:12:42;30.33;;;19.80;;
11473;SDS011;5793;52.238;13.438;2022-11-21T09:15:11;29.00;;;19.10;;
11473;SDS011;5793;52.238;13.438;2022-11-21T09:17:59;31.57;;;20.13;;
11473;SDS011;5793;52.238;13.438;2022-11-21T09:20:30;30.07;;;20.20;;
11473;SDS011;5793;52.238;13.438;2022-11-21T09:23:02;29.57;;;19.30;;
11473;SDS011;5793;52.238;13.438;2022-11-21T09:25:30;31.03;;;18.90;;
11473;SDS011;5793;52.238;13.438;2022-11-21T09:27:58;30.70;;;20.50;;
11473;SDS011;5793;52.238;13.438;2022-11-21T09:30:27;32.03;;;19.90;;
11473;SDS011;5793;52.238;13.438;2022-11-21T09:32:58;36.20;;;22.80;;
11473;SDS011;5793;52.238;13.438;2022-11-21T09:35:26;35.57;;;21.43;;
11473;SDS011;5793;52.238;13.438;2022-11-21T09:37:54;32.53;;;21.43;;
11473;SDS011;5793;52.238;13.438;2022-11-21T09:40:24;34.77;;;21.73;;
11473;SDS011;5793;52.238;13.438;2022-11-21T09:43:00;30.23;;;19.37;;
11473;SDS011;5793;52.238;13.438;2022-11-21T09:45:35;30.07;;;18.40;;
11473;SDS011;5793;52.238;13.438;2022-11-21T09:48:07;28.10;;;18.37;;
11473;SDS011;5793;52.238;13.438;2022-11-21T09:50:40;29.80;;;19.20;;
11473;SDS011;5793;52.238;13.438;2022-11-21T09:53:17;30.07;;;18.50;;
11473;SDS011;5793;52.238;13.438;2022-11-21T09:55:50;26.93;;;17.73;;
11473;SDS011;5793;52.238;13.438;2022-11-21T09:58:22;31.27;;;19.07;;
11473;SDS011;5793;52.238;13.438;2022-11-21T10:00:57;30.10;;;19.13;;
11473;SDS011;5793;52.238;13.438;2022-11-21T10:03:26;26.97;;;17.87;;
11473;SDS011;5793;52.238;13.438;2022-11-21T10:05:57;30.33;;;18.93;;
11473;SDS011;5793;52.238;13.438;2022-11-21T10:08:28;29.90;;;19.23;;
11473;SDS011;5793;52.238;13.438;2022-11-21T10:11:05;31.07;;;20.20;;
11473;SDS011;5793;52.238;13.438;2022-11-21T10:13:48;30.37;;;19.43;;
11473;SDS011;5793;52.238;13.438;2022-11-21T10:16:27;30.73;;;20.00;;
11473;SDS011;5793;52.238;13.438;2022-11-21T10:19:14;32.30;;;21.53;;
11473;SDS011;5793;52.238;13.438;2022-11-21T10:22:07;30.63;;;19.93;;
11473;SDS011;5793;52.238;13.438;2022-11-21T10:24:47;28.40;;;17.80;;
11473;SDS011;5793;52.238;13.438;2022-11-21T10:27:23;28.97;;;17.70;;
11473;SDS011;5793;52.238;13.438;2022-11-21T10:29:58;26.93;;;18.07;;
11473;SDS011;5793;52.238;13.438;2022-11-21T10:32:33;25.50;;;16.40;;
11473;SDS011;5793;52.238;13.438;2022-11-21T10:35:11;22.50;;;14.77;;
11473;SDS011;5793;52.238;13.438;2022-11-21T10:37:42;21.37;;;14.90;;
11473;SDS011;5793;52.238;13.438;2022-11-21T10:40:15;20.93;;;13.70;;
11473;SDS011;5793;52.238;13.438;2022-11-21T10:42:52;22.77;;;15.47;;
11473;SDS011;5793;52.238;13.438;2022-11-21T10:45:23;24.70;;;16.53;;
11473;SDS011;5793;52.238;13.438;2022-11-21T10:47:51;27.87;;;20.43;;
11473;SDS011;5793;52.238;13.438;2022-11-21T10:50:31;23.53;;;16.50;;
11473;SDS011;5793;52.238;13.438;2022-11-21T10:53:09;47.07;;;19.60;;
11473;SDS011;5793;52.238;13.438;2022-11-21T10:56:00;26.17;;;17.07;;
11473;SDS011;5793;52.238;13.438;2022-11-21T10:58:34;26.70;;;17.60;;
11473;SDS011;5793;52.238;13.438;2022-11-21T11:01:14;43.70;;;26.83;;
11473;SDS011;5793;52.238;13.438;2022-11-21T11:04:10;38.70;;;26.37;;
11473;SDS011;5793;52.238;13.438;2022-11-21T11:07:12;27.20;;;17.33;;
11473;SDS011;5793;52.238;13.438;2022-11-21T11:09:48;22.50;;;16.37;;
11473;SDS011;5793;52.238;13.438;2022-11-21T11:12:21;24.17;;;16.97;;
11473;SDS011;5793;52.238;13.438;2022-11-21T11:15:17;26.73;;;16.27;;
11473;SDS011;5793;52.238;13.438;2022-11-21T11:17:50;25.47;;;16.60;;
11473;SDS011;5793;52.238;13.438;2022-11-21T11:20:32;23.83;;;16.10;;
11473;SDS011;5793;52.238;13.438;2022-11-21T11:23:16;20.50;;;14.67;;
11473;SDS011;5793;52.238;13.438;2022-11-21T11:25:50;23.47;;;15.30;;
11473;SDS011;5793;52.238;13.438;2022-11-21T11:28:19;22.60;;;15.67;;
11473;SDS011;5793;52.238;13.438;2022-11-21T11:30:49;21.97;;;13.80;;
11473;SDS011;5793;52.238;13.438;2022-11-21T11:33:28;24.70;;;13.83;;
11473;SDS011;5793;52.238;13.438;2022-11-21T11:36:00;18.47;;;13.13;;
11473;SDS011;5793;52.238;13.438;2022-11-21T11:38:39;19.97;;;13.67;;
11473;SDS011;5793;52.238;13.438;2022-11-21T11:41:12;17.57;;;12.30;;
11473;SDS011;5793;52.238;13.438;2022-11-21T11:43:48;18.40;;;13.17;;
11473;SDS011;5793;52.238;13.438;2022-11-21T11:46:43;18.30;;;12.30;;
11473;SDS011;5793;52.238;13.438;2022-11-21T11:49:39;19.00;;;12.60;;
11473;SDS011;5793;52.238;13.438;2022-11-21T11:52:38;22.87;;;15.30;;
11473;SDS011;5793;52.238;13.438;2022-11-21T11:55:14;23.03;;;15.73;;
11473;SDS011;5793;52.238;13.438;2022-11-21T11:57:46;32.27;;;21.57;;
11473;SDS011;5793;52.238;13.438;2022-11-21T12:00:21;22.13;;;15.80;;
11473;SDS011;5793;52.238;13.438;2022-11-21T12:02:55;21.73;;;14.03;;
11473;SDS011;5793;52.238;13.438;2022-11-21T12:05:26;20.40;;;13.87;;
11473;SDS011;5793;52.238;13.438;2022-11-21T12:08:04;19.70;;;14.00;;
11473;SDS011;5793;52.238;13.438;2022-11-21T12:10:58;20.33;;;14.77;;
11473;SDS011;5793;52.238;13.438;2022-11-21T12:13:53;22.03;;;14.80;;
11473;SDS011;5793;52.238;13.438;2022-11-21T12:16:23;21.97;;;15.40;;
11473;SDS011;5793;52.238;13.438;2022-11-21T12:18:53;19.80;;;13.67;;
11473;SDS011;5793;52.238;13.438;2022-11-21T12:21:24;20.43;;;13.53;;
11473;SDS011;5793;52.238;13.438;2022-11-21T12:23:55;20.43;;;14.10;;
11473;SDS011;5793;52.238;13.438;2022-11-21T12:26:30;20.07;;;14.00;;
11473;SDS011;5793;52.238;13.438;2022-11-21T12:29:10;20.77;;;14.40;;
11473;SDS011;5793;52.238;13.438;2022-11-21T12:31:50;19.03;;;13.27;;
11473;SDS011;5793;52.238;13.438;2022-11-21T12:34:36;25.57;;;17.03;;
11473;SDS011;5793;52.238;13.438;2022-11-21T12:37:25;22.33;;;16.10;;
11473;SDS011;5793;52.238;13.438;2022-11-21T12:40:03;18.97;;;13.73;;
11473;SDS011;5793;52.238;13.438;2022-11-21T12:42:39;16.67;;;11.93;;
11473;SDS011;5793;52.238;13.438;2022-11-21T12:45:24;17.03;;;12.83;;
11473;SDS011;5793;52.238;13.438;2022-11-21T12:48:14;17.07;;;12.77;;
11473;SDS011;5793;52.238;13.438;2022-11-21T12:51:16;15.67;;;11.47;;
11473;SDS011;5793;52.238;13.438;2022-11-21T12:54:29;18.53;;;13.57;;
11473;SDS011;5793;52.238;13.438;2022-11-21T12:57:16;18.40;;;13.60;;
11473;SDS011;5793;52.238;13.438;2022-11-21T12:59:47;16.73;;;12.63;;
11473;SDS011;5793;52.238;13.438;2022-11-21T13:02:23;15.83;;;12.43;;
11473;SDS011;5793;52.238;13.438;2022-11-21T13:04:56;18.50;;;13.10;;
11473;SDS011;5793;52.238;13.438;2022-11-21T13:07:26;17.40;;;12.80;;
11473;SDS011;5793;52.238;13.438;2022-11-21T13:09:56;19.07;;;12.97;;
11473;SDS011;5793;52.238;13.438;2022-11-21T13:12:29;17.47;;;13.30;;
11473;SDS011;5793;52.238;13.438;2022-11-21T13:15:11;18.27;;;13.50;;
11473;SDS011;5793;52.238;13.438;2022-11-21T13:17:45;16.27;;;11.83;;
11473;SDS011;5793;52.238;13.438;2022-11-21T13:20:19;16.97;;;12.33;;
11473;SDS011;5793;52.238;13.438;2022-11-21T13:22:51;22.10;;;16.97;;
11473;SDS011;5793;52.238;13.438;2022-11-21T13:25:34;17.13;;;13.17;;
11473;SDS011;5793;52.238;13.438;2022-11-21T13:30:55;18.63;;;12.40;;
11473;SDS011;5793;52.238;13.438;2022-11-21T13:33:45;17.43;;;12.53;;
11473;SDS011;5793;52.238;13.438;2022-11-21T13:42:04;20.00;;;14.23;;
11473;SDS011;5793;52.238;13.438;2022-11-21T13:44:53;16.40;;;12.53;;
11473;SDS011;5793;52.238;13.438;2022-11-21T13:47:28;17.10;;;12.90;;
11473;SDS011;5793;52.238;13.438;2022-11-21T13:50:15;16.20;;;12.53;;
11473;SDS011;5793;52.238;13.438;2022-11-21T13:52:52;17.70;;;12.27;;
11473;SDS011;5793;52.238;13.438;2022-11-21T13:58:27;16.17;;;12.07;;
11473;SDS011;5793;52.238;13.438;2022-11-21T14:01:20;17.70;;;12.50;;
11473;SDS011;5793;52.238;13.438;2022-11-21T14:04:10;14.97;;;11.37;;
11473;SDS011;5793;52.238;13.438;2022-11-21T14:06:52;16.00;;;12.03;;
11473;SDS011;5793;52.238;13.438;2022-11-21T14:09:21;17.80;;;11.33;;
11473;SDS011;5793;52.238;13.438;2022-11-21T14:11:53;17.80;;;11.57;;
11473;SDS011;5793;52.238;13.438;2022-11-21T14:14:25;16.43;;;12.00;;
11473;SDS011;5793;52.238;13.438;2022-11-21T14:17:00;17.63;;;11.97;;
11473;SDS011;5793;52.238;13.438;2022-11-21T14:19:59;17.00;;;11.97;;
11473;SDS011;5793;52.238;13.438;2022-11-21T14:22:35;16.53;;;11.70;;
11473;SDS011;5793;52.238;13.438;2022-11-21T14:25:12;15.70;;;12.10;;
11473;SDS011;5793;52.238;13.438;2022-11-21T14:27:44;16.43;;;12.37;;
11473;SDS011;5793;52.238;13.438;2022-11-21T14:30:31;18.87;;;13.57;;
11473;SDS011;5793;52.238;13.438;2022-11-21T14:33:21;17.50;;;12.20;;
11473;SDS011;5793;52.238;13.438;2022-11-21T14:35:51;15.57;;;11.57;;
11473;SDS011;5793;52.238;13.438;2022-11-21T14:38:21;17.50;;;12.07;;
11473;SDS011;5793;52.238;13.438;2022-11-21T14:40:50;17.63;;;11.90;;
11473;SDS011;5793;52.238;13.438;2022-11-21T14:43:47;14.83;;;11.47;;
11473;SDS011;5793;52.238;13.438;2022-11-21T14:46:15;18.63;;;12.83;;
11473;SDS011;5793;52.238;13.438;2022-11-21T14:48:47;17.57;;;12.77;;
11473;SDS011;5793;52.238;13.438;2022-11-21T14:51:17;17.50;;;11.83;;
11473;SDS011;5793;52.238;13.438;2022-11-21T14:53:47;16.30;;;11.93;;
11473;SDS011;5793;52.238;13.438;2022-11-21T14:56:19;15.83;;;11.20;;
11473;SDS011;5793;52.238;13.438;2022-11-21T14:58:49;16.93;;;12.07;;
11473;SDS011;5793;52.238;13.438;2022-11-21T15:01:18;16.67;;;12.07;;
11473;SDS011;5793;52.238;13.438;2022-11-21T15:03:54;18.43;;;12.33;;
11473;SDS011;5793;52.238;13.438;2022-11-21T15:06:23;16.33;;;11.93;;
11473;SDS011;5793;52.238;13.438;2022-11-21T15:08:52;16.80;;;11.77;;
11473;SDS011;5793;52.238;13.438;2022-11-21T15:11:42;17.03;;;12.30;;
11473;SDS011;5793;52.238;13.438;2022-11-21T15:14:17;18.53;;;12.97;;
11473;SDS011;5793;52.238;13.438;2022-11-21T15:16:48;19.43;;;12.63;;
11473;SDS011;5793;52.238;13.438;2022-11-21T15:19:20;18.57;;;13.10;;
11473;SDS011;5793;52.238;13.438;2022-11-21T15:21:50;16.17;;;11.97;;
11473;SDS011;5793;52.238;13.438;2022-11-21T15:24:28;18.03;;;13.03;;
11473;SDS011;5793;52.238;13.438;2022-11-21T15:30:14;17.70;;;12.10;;
11473;SDS011;5793;52.238;13.438;2022-11-21T15:32:57;17.77;;;12.30;;